Time;durP1;ratioP1;P1;durP2;ratioP2;P2;SDS_P1;SDS_P2;PMS_P1;PMS_P2;Temp;Humidity;BMP_temperature;BMP_pressure;BME280_temperature;BME280_humidity;BME280_pressure;Samples;Min_cycle;Max_cycle;Signal;HPM_P1;HPM_P2
2021/03/14 00:00:24;;;;;;;10.73;1.53;;;;;;;;;;5071972;28;20472;-82
2021/03/14 00:02:50;;;;;;;5.27;1.30;;;;;;;;;;5070881;28;20468;-82
2021/03/14 00:05:15;;;;;;;8.63;1.60;;;;;;;;;;5070659;28;20077;-82
2021/03/14 00:07:41;;;;;;;3.97;1.30;;;;;;;;;;5070763;28;20017;-82
2021/03/14 00:10:06;;;;;;;6.30;1.70;;;;;;;;;;5070527;28;20111;-82
2021/03/14 00:12:32;;;;;;;7.67;1.53;;;;;;;;;;5070463;28;20467;-82
2021/03/14 00:14:57;;;;;;;7.00;1.40;;;;;;;;;;5070273;28;20017;-82
2021/03/14 00:17:22;;;;;;;5.97;1.30;;;;;;;;;;5070559;28;20017;-82
2021/03/14 00:19:47;;;;;;;5.83;1.50;;;;;;;;;;5071767;28;20015;-82
2021/03/14 00:22:12;;;;;;;5.27;1.60;;;;;;;;;;5070537;28;20088;-82
2021/03/14 00:24:38;;;;;;;4.93;1.07;;;;;;;;;;5070284;28;20791;-82
2021/03/14 00:27:03;;;;;;;5.17;1.50;;;;;;;;;;5070514;28;20027;-82
2021/03/14 00:29:28;;;;;;;8.00;1.40;;;;;;;;;;5064937;28;20314;-82
2021/03/14 00:31:53;;;;;;;6.83;1.30;;;;;;;;;;5060612;28;20479;-82
2021/03/14 00:34:19;;;;;;;7.10;1.10;;;;;;;;;;5065903;28;21123;-82
2021/03/14 00:36:44;;;;;;;10.43;1.90;;;;;;;;;;5073650;28;20111;-82
2021/03/14 00:39:09;;;;;;;6.70;1.47;;;;;;;;;;5074197;28;20051;-82
2021/03/14 00:41:34;;;;;;;6.73;1.23;;;;;;;;;;5075186;28;20016;-82
2021/03/14 00:43:59;;;;;;;5.13;1.10;;;;;;;;;;5073973;28;20017;-82
2021/03/14 00:46:26;;;;;;;4.33;1.20;;;;;;;;;;5075095;28;20031;-82
2021/03/14 00:48:52;;;;;;;9.37;1.40;;;;;;;;;;5073885;28;20024;-82
2021/03/14 00:51:17;;;;;;;6.83;1.10;;;;;;;;;;5075015;28;20016;-83
2021/03/14 00:53:42;;;;;;;4.13;1.00;;;;;;;;;;5073935;28;20040;-82
2021/03/14 00:56:07;;;;;;;5.97;1.37;;;;;;;;;;5073763;28;20034;-82
2021/03/14 00:58:32;;;;;;;3.43;1.17;;;;;;;;;;5073823;28;20021;-82
2021/03/14 01:00:58;;;;;;;8.60;1.80;;;;;;;;;;5073845;28;20016;-82
2021/03/14 01:03:23;;;;;;;8.27;1.30;;;;;;;;;;5073880;28;20070;-82
2021/03/14 01:05:48;;;;;;;7.20;1.23;;;;;;;;;;5074594;28;20012;-82
2021/03/14 01:08:16;;;;;;;5.97;1.10;;;;;;;;;;5073789;28;20039;-82
2021/03/14 01:10:41;;;;;;;4.93;1.20;;;;;;;;;;5073432;28;20153;-82
2021/03/14 01:13:06;;;;;;;3.53;1.10;;;;;;;;;;5074623;28;20058;-82
2021/03/14 01:15:31;;;;;;;6.83;1.40;;;;;;;;;;5074654;28;20529;-82
2021/03/14 01:17:56;;;;;;;10.80;1.50;;;;;;;;;;5074406;28;20016;-82
2021/03/14 01:20:22;;;;;;;5.37;1.20;;;;;;;;;;5074744;28;20023;-82
2021/03/14 01:22:48;;;;;;;6.97;1.47;;;;;;;;;;5074416;28;20009;-82
2021/03/14 01:25:13;;;;;;;6.13;1.30;;;;;;;;;;5072775;28;20130;-82
2021/03/14 01:27:39;;;;;;;6.57;1.40;;;;;;;;;;5075045;28;20032;-82
2021/03/14 01:30:06;;;;;;;6.40;1.30;;;;;;;;;;5072936;28;20036;-82
2021/03/14 01:32:31;;;;;;;6.20;1.20;;;;;;;;;;5053099;28;20078;-82
2021/03/14 01:34:56;;;;;;;7.57;1.67;;;;;;;;;;5069793;28;20021;-82
2021/03/14 01:37:23;;;;;;;8.43;1.07;;;;;;;;;;5074255;28;20081;-82
2021/03/14 01:39:48;;;;;;;8.43;1.80;;;;;;;;;;5072231;28;20455;-82
2021/03/14 01:42:14;;;;;;;5.50;1.33;;;;;;;;;;5073043;28;20073;-82
2021/03/14 01:44:42;;;;;;;7.93;2.03;;;;;;;;;;5073912;28;20017;-82
2021/03/14 01:47:08;;;;;;;12.63;1.40;;;;;;;;;;5072898;28;20111;-82
2021/03/14 01:49:33;;;;;;;4.40;1.20;;;;;;;;;;5072669;28;20352;-82
2021/03/14 01:51:58;;;;;;;9.30;1.90;;;;;;;;;;5071984;28;20032;-82
2021/03/14 01:54:23;;;;;;;11.00;1.37;;;;;;;;;;5074095;28;20039;-82
2021/03/14 01:56:49;;;;;;;7.33;1.10;;;;;;;;;;5072418;28;20028;-82
2021/03/14 01:59:15;;;;;;;10.77;1.50;;;;;;;;;;5073797;28;20043;-82
2021/03/14 02:01:41;;;;;;;4.20;1.20;;;;;;;;;;5096887;28;20151;-82
2021/03/14 02:04:06;;;;;;;8.40;1.80;;;;;;;;;;5072643;28;20023;-82
2021/03/14 02:06:31;;;;;;;11.40;1.60;;;;;;;;;;5072276;28;20523;-82
2021/03/14 02:08:57;;;;;;;12.23;1.60;;;;;;;;;;5072113;28;20019;-82
2021/03/14 02:11:24;;;;;;;8.93;1.40;;;;;;;;;;5071592;28;20047;-82
2021/03/14 02:13:51;;;;;;;11.53;1.50;;;;;;;;;;5072340;28;20035;-82
2021/03/14 02:16:22;;;;;;;10.97;1.70;;;;;;;;;;5071961;28;20051;-83
2021/03/14 02:18:49;;;;;;;15.20;1.93;;;;;;;;;;5072202;28;20013;-82
2021/03/14 02:21:15;;;;;;;8.60;1.67;;;;;;;;;;5071870;28;20418;-82
2021/03/14 02:23:43;;;;;;;14.40;1.77;;;;;;;;;;5072140;28;20017;-82
2021/03/14 02:26:10;;;;;;;9.27;1.50;;;;;;;;;;5073486;28;20012;-82
2021/03/14 02:28:37;;;;;;;11.13;1.67;;;;;;;;;;5072035;28;20476;-82
2021/03/14 02:31:04;;;;;;;12.20;1.80;;;;;;;;;;5072373;28;20032;-82
2021/03/14 02:33:31;;;;;;;14.83;2.07;;;;;;;;;;5069798;28;20021;-82
2021/03/14 02:35:56;;;;;;;8.20;1.53;;;;;;;;;;5069660;28;20070;-82
2021/03/14 02:38:22;;;;;;;13.27;1.60;;;;;;;;;;5071141;28;20013;-82
2021/03/14 02:40:48;;;;;;;13.23;1.80;;;;;;;;;;5069923;28;20027;-82
2021/03/14 02:43:13;;;;;;;6.67;1.30;;;;;;;;;;5070066;28;20017;-82
2021/03/14 02:45:39;;;;;;;11.40;2.23;;;;;;;;;;5069762;28;20031;-82
2021/03/14 02:48:05;;;;;;;8.33;2.37;;;;;;;;;;5069995;28;20495;-82
2021/03/14 02:50:31;;;;;;;8.73;1.83;;;;;;;;;;5069396;28;20047;-82
2021/03/14 02:52:56;;;;;;;8.63;1.50;;;;;;;;;;5071343;28;20029;-82
2021/03/14 02:55:22;;;;;;;10.47;2.07;;;;;;;;;;5072078;28;20016;-82
2021/03/14 02:57:48;;;;;;;7.40;1.57;;;;;;;;;;5072709;28;20105;-82
2021/03/14 03:00:15;;;;;;;13.13;2.00;;;;;;;;;;5070922;28;20017;-82
2021/03/14 03:02:43;;;;;;;8.97;1.90;;;;;;;;;;5059219;28;20108;-82
2021/03/14 03:05:09;;;;;;;7.63;1.83;;;;;;;;;;5071284;28;20455;-82
2021/03/14 03:07:34;;;;;;;9.80;1.50;;;;;;;;;;5071319;28;20107;-81
2021/03/14 03:10:00;;;;;;;8.90;1.60;;;;;;;;;;5072182;28;20095;-82
2021/03/14 03:12:26;;;;;;;10.17;1.43;;;;;;;;;;5070652;28;20109;-82
2021/03/14 03:14:53;;;;;;;12.50;2.37;;;;;;;;;;5072299;28;20059;-82
2021/03/14 03:17:18;;;;;;;11.63;2.43;;;;;;;;;;5071107;28;20044;-82
2021/03/14 03:19:44;;;;;;;12.87;1.70;;;;;;;;;;5070998;28;20052;-81
2021/03/14 03:22:09;;;;;;;16.27;1.93;;;;;;;;;;5071028;28;20027;-82
2021/03/14 03:24:35;;;;;;;7.17;1.70;;;;;;;;;;5071805;28;20043;-82
2021/03/14 03:27:00;;;;;;;12.30;2.37;;;;;;;;;;5070988;28;20023;-82
2021/03/14 03:29:25;;;;;;;10.67;1.67;;;;;;;;;;5070827;28;20107;-82
2021/03/14 03:31:50;;;;;;;11.43;1.83;;;;;;;;;;5070770;28;20493;-82
2021/03/14 03:34:15;;;;;;;10.77;1.60;;;;;;;;;;5071148;28;20515;-81
2021/03/14 03:36:42;;;;;;;11.10;2.27;;;;;;;;;;5070364;28;20025;-82
2021/03/14 03:39:08;;;;;;;9.73;1.90;;;;;;;;;;5072117;28;20146;-82
2021/03/14 03:41:34;;;;;;;17.43;2.03;;;;;;;;;;5070414;28;20021;-82
2021/03/14 03:44:00;;;;;;;15.50;2.57;;;;;;;;;;5070426;28;20380;-82
2021/03/14 03:46:26;;;;;;;12.47;3.23;;;;;;;;;;5071357;28;20507;-81
2021/03/14 03:48:56;;;;;;;8.63;2.00;;;;;;;;;;5070718;28;20017;-82
2021/03/14 03:51:28;;;;;;;6.00;1.53;;;;;;;;;;5070547;28;20475;-82
2021/03/14 03:53:53;;;;;;;;;;;;;;;;;;5091098;28;20016;-81
2021/03/14 03:56:19;;;;;;;6.30;1.57;;;;;;;;;;5071586;28;19918;-82
2021/03/14 03:58:44;;;;;;;8.27;1.57;;;;;;;;;;5070641;28;20410;-82
2021/03/14 04:01:11;;;;;;;13.57;2.40;;;;;;;;;;5070485;28;20775;-82
2021/03/14 04:03:37;;;;;;;6.40;1.50;;;;;;;;;;5070704;28;20024;-82
2021/03/14 04:06:02;;;;;;;8.80;1.80;;;;;;;;;;5070743;28;20027;-82
2021/03/14 04:08:29;;;;;;;10.30;1.80;;;;;;;;;;5073388;28;20502;-81
2021/03/14 04:10:54;;;;;;;9.00;1.53;;;;;;;;;;5073763;28;20069;-81
2021/03/14 04:13:20;;;;;;;5.43;1.30;;;;;;;;;;5074519;28;20115;-82
2021/03/14 04:15:45;;;;;;;10.00;1.63;;;;;;;;;;5074235;28;20481;-82
2021/03/14 04:18:11;;;;;;;8.83;1.87;;;;;;;;;;5074699;28;20024;-81
2021/03/14 04:20:38;;;;;;;11.50;2.13;;;;;;;;;;5074462;28;20023;-82
2021/03/14 04:23:05;;;;;;;12.87;1.70;;;;;;;;;;5074437;28;20028;-81
2021/03/14 04:25:31;;;;;;;7.80;2.10;;;;;;;;;;5074501;28;20055;-82
2021/03/14 04:27:57;;;;;;;19.13;2.60;;;;;;;;;;5074373;28;20013;-82
2021/03/14 04:30:24;;;;;;;10.80;1.90;;;;;;;;;;5075557;28;20360;-82
2021/03/14 04:32:51;;;;;;;7.20;1.77;;;;;;;;;;5075609;28;20464;-82
2021/03/14 04:35:16;;;;;;;11.40;1.70;;;;;;;;;;5075651;28;20396;-82
2021/03/14 04:37:42;;;;;;;11.47;1.83;;;;;;;;;;5074321;28;20070;-82
2021/03/14 04:40:09;;;;;;;11.30;2.00;;;;;;;;;;5073881;28;20021;-82
2021/03/14 04:42:35;;;;;;;11.63;2.00;;;;;;;;;;5075641;28;20143;-82
2021/03/14 04:45:00;;;;;;;12.40;2.00;;;;;;;;;;5075214;28;20027;-82
2021/03/14 04:47:25;;;;;;;14.10;2.77;;;;;;;;;;5073941;28;20021;-82
2021/03/14 04:49:50;;;;;;;10.33;2.00;;;;;;;;;;5073670;28;20499;-82
2021/03/14 04:52:18;;;;;;;16.13;2.10;;;;;;;;;;5073619;28;20013;-81
2021/03/14 04:54:44;;;;;;;14.13;2.40;;;;;;;;;;5073942;28;20020;-81
2021/03/14 04:57:10;;;;;;;11.80;2.23;;;;;;;;;;5074895;28;20103;-81
2021/03/14 04:59:36;;;;;;;10.03;2.70;;;;;;;;;;5073852;28;20158;-81
2021/03/14 05:02:03;;;;;;;10.43;1.90;;;;;;;;;;5073249;28;20459;-81
2021/03/14 05:04:30;;;;;;;17.37;2.17;;;;;;;;;;5073393;28;20093;-82
2021/03/14 05:06:55;;;;;;;18.60;1.97;;;;;;;;;;5074802;28;20033;-81
2021/03/14 05:09:21;;;;;;;11.80;2.23;;;;;;;;;;5073635;28;20040;-81
2021/03/14 05:11:46;;;;;;;14.67;1.80;;;;;;;;;;5074848;28;20023;-82
2021/03/14 05:14:12;;;;;;;8.93;1.63;;;;;;;;;;5073642;28;20032;-81
2021/03/14 05:16:38;;;;;;;10.47;1.90;;;;;;;;;;5073400;28;20090;-81
2021/03/14 05:19:03;;;;;;;13.63;1.70;;;;;;;;;;5073182;28;20468;-81
2021/03/14 05:21:30;;;;;;;11.97;1.60;;;;;;;;;;5074321;28;20013;-82
2021/03/14 05:23:56;;;;;;;11.93;1.90;;;;;;;;;;5073362;28;20107;-82
2021/03/14 05:26:21;;;;;;;10.53;2.10;;;;;;;;;;5074578;28;20047;-82
2021/03/14 05:28:46;;;;;;;17.47;2.23;;;;;;;;;;5073477;28;20151;-82
2021/03/14 05:31:26;;;;;;;16.80;2.20;;;;;;;;;;5072784;28;20391;-81
2021/03/14 05:33:51;;;;;;;11.83;1.83;;;;;;;;;;5072869;28;20460;-82
2021/03/14 05:36:17;;;;;;;11.03;1.97;;;;;;;;;;5071350;28;20035;-82
2021/03/14 05:38:42;;;;;;;12.57;1.90;;;;;;;;;;5071527;28;20036;-81
2021/03/14 05:41:07;;;;;;;16.90;2.10;;;;;;;;;;5072485;28;20028;-82
2021/03/14 05:43:33;;;;;;;15.83;2.50;;;;;;;;;;5072781;28;20013;-81
2021/03/14 05:45:58;;;;;;;10.43;2.23;;;;;;;;;;5071010;28;20069;-82
2021/03/14 05:48:23;;;;;;;12.07;2.47;;;;;;;;;;5071028;28;20020;-82
2021/03/14 05:50:48;;;;;;;14.33;1.90;;;;;;;;;;5070753;28;20063;-82
2021/03/14 05:53:15;;;;;;;13.63;1.70;;;;;;;;;;5071436;28;20115;-82
2021/03/14 05:55:40;;;;;;;10.67;1.70;;;;;;;;;;5071230;28;20024;-82
2021/03/14 05:58:05;;;;;;;10.90;1.80;;;;;;;;;;5071420;28;20025;-81
2021/03/14 06:00:31;;;;;;;15.50;2.33;;;;;;;;;;5072503;28;20056;-82
2021/03/14 06:03:00;;;;;;;16.03;3.13;;;;;;;;;;5074087;28;20039;-82
2021/03/14 06:05:26;;;;;;;19.33;2.77;;;;;;;;;;5073580;28;20024;-81
2021/03/14 06:07:51;;;;;;;15.57;3.10;;;;;;;;;;5072579;28;20023;-81
2021/03/14 06:10:17;;;;;;;21.80;3.23;;;;;;;;;;5106234;28;20391;-81
2021/03/14 06:12:43;;;;;;;8.93;2.03;;;;;;;;;;5073343;28;20028;-82
2021/03/14 06:15:11;;;;;;;16.23;2.70;;;;;;;;;;5072531;28;20025;-82
2021/03/14 06:17:37;;;;;;;13.30;2.77;;;;;;;;;;5072183;28;20029;-82
2021/03/14 06:20:03;;;;;;;14.80;2.77;;;;;;;;;;5073309;28;20077;-82
2021/03/14 06:22:29;;;;;;;10.07;2.10;;;;;;;;;;5071858;28;20055;-82
2021/03/14 06:24:54;;;;;;;13.90;2.40;;;;;;;;;;5072318;28;20043;-82
2021/03/14 06:27:30;;;;;;;13.63;2.43;;;;;;;;;;5072216;28;20086;-81
2021/03/14 06:29:55;;;;;;;15.43;2.63;;;;;;;;;;5071193;28;20090;-81
2021/03/14 06:32:20;;;;;;;10.10;2.03;;;;;;;;;;5073539;28;20386;-82
2021/03/14 06:34:46;;;;;;;16.80;2.43;;;;;;;;;;5071884;28;20028;-82
2021/03/14 06:37:12;;;;;;;13.43;2.60;;;;;;;;;;5071590;28;20070;-82
2021/03/14 06:39:41;;;;;;;7.93;2.23;;;;;;;;;;5071634;28;20044;-82
2021/03/14 06:42:07;;;;;;;11.80;2.13;;;;;;;;;;5072329;28;20047;-82
2021/03/14 06:44:36;;;;;;;11.33;3.27;;;;;;;;;;5072098;28;20013;-82
2021/03/14 06:47:02;;;;;;;12.03;2.90;;;;;;;;;;5073192;28;20012;-82
2021/03/14 06:49:28;;;;;;;7.57;2.60;;;;;;;;;;5071829;28;20023;-81
2021/03/14 06:51:57;;;;;;;7.90;2.40;;;;;;;;;;5071141;28;20017;-82
2021/03/14 06:54:23;;;;;;;17.00;2.47;;;;;;;;;;5071732;28;20016;-82
2021/03/14 06:56:58;;;;;;;9.87;2.60;;;;;;;;;;5071846;28;20024;-82
2021/03/14 06:59:23;;;;;;;11.63;2.73;;;;;;;;;;5071540;28;20031;-82
2021/03/14 07:01:59;;;;;;;9.43;2.80;;;;;;;;;;5071576;28;20464;-82
2021/03/14 07:04:31;;;;;;;11.90;2.73;;;;;;;;;;5072695;28;20039;-82
2021/03/14 07:06:57;;;;;;;9.88;2.70;;;;;;;;;;5072589;28;20056;-82
2021/03/14 07:09:22;;;;;;;8.13;2.33;;;;;;;;;;5071200;28;20106;-82
2021/03/14 07:11:47;;;;;;;11.30;2.53;;;;;;;;;;5071079;28;20020;-82
2021/03/14 07:14:13;;;;;;;11.87;2.77;;;;;;;;;;5072644;28;20464;-82
2021/03/14 07:16:40;;;;;;;8.83;2.47;;;;;;;;;;5071148;28;20357;-82
2021/03/14 07:19:07;;;;;;;8.20;2.33;;;;;;;;;;5072819;28;20415;-82
2021/03/14 07:21:32;;;;;;;3.43;2.00;;;;;;;;;;5071217;28;20048;-81
2021/03/14 07:23:57;;;;;;;9.37;2.60;;;;;;;;;;5072735;28;20016;-82
2021/03/14 07:26:41;;;;;;;12.90;3.37;;;;;;;;;;5070550;28;20032;-82
2021/03/14 07:29:07;;;;;;;7.10;3.03;;;;;;;;;;5070607;28;20031;-82
2021/03/14 07:31:33;;;;;;;8.17;3.03;;;;;;;;;;5070823;28;20016;-82
2021/03/14 07:33:59;;;;;;;12.87;4.63;;;;;;;;;;5071482;28;20032;-82
2021/03/14 07:36:24;;;;;;;5.60;3.13;;;;;;;;;;5069418;28;20047;-81
2021/03/14 07:38:49;;;;;;;8.83;3.40;;;;;;;;;;5069661;28;20353;-81
2021/03/14 07:41:15;;;;;;;8.97;3.30;;;;;;;;;;5070455;28;20019;-81
2021/03/14 07:43:40;;;;;;;8.77;3.70;;;;;;;;;;5070467;28;20418;-81
2021/03/14 07:46:06;;;;;;;11.30;4.27;;;;;;;;;;5070882;28;20020;-81
2021/03/14 07:48:31;;;;;;;11.43;5.10;;;;;;;;;;5070597;28;20066;-81
2021/03/14 07:50:56;;;;;;;13.33;5.00;;;;;;;;;;5072273;28;20622;-81
2021/03/14 07:53:22;;;;;;;8.20;3.70;;;;;;;;;;5071951;28;20020;-82
2021/03/14 07:55:53;;;;;;;10.33;4.73;;;;;;;;;;5072126;28;20099;-81
2021/03/14 07:58:22;;;;;;;9.37;4.03;;;;;;;;;;5070544;28;20042;-81
2021/03/14 08:00:47;;;;;;;9.03;3.90;;;;;;;;;;5070349;28;20662;-82
2021/03/14 08:03:12;;;;;;;9.17;4.77;;;;;;;;;;5072176;28;20060;-81
2021/03/14 08:05:41;;;;;;;8.73;4.40;;;;;;;;;;5070294;28;20035;-82
2021/03/14 08:08:29;;;;;;;9.27;4.67;;;;;;;;;;5069576;28;20016;-82
2021/03/14 08:10:55;;;;;;;8.33;4.73;;;;;;;;;;5061784;28;20682;-82
2021/03/14 08:13:29;;;;;;;13.63;5.67;;;;;;;;;;5070325;28;20103;-81
2021/03/14 08:16:01;;;;;;;10.67;4.97;;;;;;;;;;5069864;28;20056;-81
2021/03/14 08:18:34;;;;;;;10.40;5.07;;;;;;;;;;5070398;28;20028;-82
2021/03/14 08:20:59;;;;;;;;;;;;;;;;;;5070305;28;20040;-82
2021/03/14 08:23:39;;;;;;;10.93;4.83;;;;;;;;;;5070102;28;19908;-82
2021/03/14 08:26:14;;;;;;;8.83;4.80;;;;;;;;;;5071714;28;20255;-82
2021/03/14 08:28:39;;;;;;;14.47;6.10;;;;;;;;;;5070481;28;20025;-82
2021/03/14 08:31:06;;;;;;;12.93;6.90;;;;;;;;;;5070139;28;20035;-82
2021/03/14 08:33:42;;;;;;;13.07;5.20;;;;;;;;;;5071915;28;20436;-81
2021/03/14 08:36:08;;;;;;;14.37;6.07;;;;;;;;;;5069949;28;20021;-82
2021/03/14 08:38:43;;;;;;;13.87;5.70;;;;;;;;;;5070022;28;20013;-82
2021/03/14 08:41:17;;;;;;;11.50;5.43;;;;;;;;;;5069666;28;20024;-81
2021/03/14 08:43:43;;;;;;;9.87;5.43;;;;;;;;;;5070085;28;20013;-82
2021/03/14 08:46:08;;;;;;;9.77;4.77;;;;;;;;;;5068484;28;20115;-82
2021/03/14 08:48:33;;;;;;;14.43;6.10;;;;;;;;;;5069796;28;20600;-83
2021/03/14 08:50:59;;;;;;;11.30;5.30;;;;;;;;;;5068945;28;20059;-83
2021/03/14 08:53:24;;;;;;;11.90;6.03;;;;;;;;;;5070678;28;20074;-82
2021/03/14 08:55:50;;;;;;;11.57;6.17;;;;;;;;;;5074487;28;20483;-82
2021/03/14 08:58:15;;;;;;;13.23;6.83;;;;;;;;;;5073358;28;20020;-82
2021/03/14 09:00:40;;;;;;;9.30;5.23;;;;;;;;;;5072039;28;20099;-83
2021/03/14 09:03:05;;;;;;;16.13;6.87;;;;;;;;;;5073687;28;20016;-83
2021/03/14 09:05:49;;;;;;;12.53;7.10;;;;;;;;;;5074210;28;20009;-82
2021/03/14 09:08:15;;;;;;;15.60;6.40;;;;;;;;;;5068767;28;20483;-81
2021/03/14 09:10:40;;;;;;;14.90;6.57;;;;;;;;;;5072617;28;20151;-81
2021/03/14 09:13:05;;;;;;;13.50;6.57;;;;;;;;;;5074445;28;20058;-80
2021/03/14 09:15:30;;;;;;;13.57;7.80;;;;;;;;;;5072972;28;20107;-80
2021/03/14 09:17:59;;;;;;;15.93;7.07;;;;;;;;;;5072903;28;20460;-81
2021/03/14 09:20:24;;;;;;;14.53;6.60;;;;;;;;;;5071689;28;20024;-80
2021/03/14 09:22:49;;;;;;;10.80;6.13;;;;;;;;;;5073138;28;20177;-80
2021/03/14 09:25:15;;;;;;;16.40;7.00;;;;;;;;;;5073451;28;20028;-81
2021/03/14 09:27:44;;;;;;;16.33;6.83;;;;;;;;;;5073842;28;20020;-81
2021/03/14 09:30:12;;;;;;;13.17;6.40;;;;;;;;;;5074245;28;20479;-81
2021/03/14 09:32:41;;;;;;;14.20;7.00;;;;;;;;;;5074664;28;20028;-81
2021/03/14 09:35:27;;;;;;;10.77;5.17;;;;;;;;;;5071519;28;20039;-81
2021/03/14 09:37:58;;;;;;;16.67;5.60;;;;;;;;;;5066873;28;20082;-81
2021/03/14 09:40:27;;;;;;;13.83;6.27;;;;;;;;;;5072091;28;20107;-81
2021/03/14 09:43:15;;;;;;;14.87;5.70;;;;;;;;;;5071831;28;20466;-82
2021/03/14 09:45:45;;;;;;;12.70;5.20;;;;;;;;;;5066030;28;20080;-81
2021/03/14 09:48:20;;;;;;;14.90;4.57;;;;;;;;;;5072372;28;20051;-81
2021/03/14 09:50:47;;;;;;;14.50;5.17;;;;;;;;;;5072233;28;20066;-81
2021/03/14 09:53:13;;;;;;;14.20;5.20;;;;;;;;;;5071677;28;20044;-81
2021/03/14 09:55:52;;;;;;;16.63;5.03;;;;;;;;;;5072982;28;20117;-81
2021/03/14 09:58:18;;;;;;;16.73;4.90;;;;;;;;;;5072511;28;20020;-81
2021/03/14 10:00:45;;;;;;;14.57;3.90;;;;;;;;;;5072463;28;20031;-81
2021/03/14 10:03:11;;;;;;;9.57;4.13;;;;;;;;;;5072817;28;20063;-82
2021/03/14 10:05:41;;;;;;;13.27;4.83;;;;;;;;;;5072198;28;20025;-82
2021/03/14 10:08:07;;;;;;;10.90;4.73;;;;;;;;;;5072665;28;20013;-82
2021/03/14 10:10:33;;;;;;;13.37;4.73;;;;;;;;;;5072739;28;20044;-81
2021/03/14 10:12:59;;;;;;;10.43;3.90;;;;;;;;;;5072336;28;20028;-81
2021/03/14 10:15:24;;;;;;;12.80;5.10;;;;;;;;;;5073495;28;20017;-81
2021/03/14 10:17:50;;;;;;;14.77;5.00;;;;;;;;;;5073527;28;20012;-81
2021/03/14 10:20:19;;;;;;;17.90;5.00;;;;;;;;;;5072167;28;20012;-81
2021/03/14 10:22:44;;;;;;;8.87;3.93;;;;;;;;;;5072193;28;20021;-81
2021/03/14 10:25:22;;;;;;;9.20;4.37;;;;;;;;;;5072212;28;20017;-81
2021/03/14 10:27:47;;;;;;;13.30;4.90;;;;;;;;;;5073437;28;20621;-82
2021/03/14 10:30:16;;;;;;;12.10;4.33;;;;;;;;;;5072017;28;20021;-82
2021/03/14 10:32:44;;;;;;;15.33;4.97;;;;;;;;;;5071591;28;20386;-81
2021/03/14 10:35:10;;;;;;;20.30;5.43;;;;;;;;;;5072936;28;20028;-81
2021/03/14 10:37:36;;;;;;;18.03;4.77;;;;;;;;;;5073526;28;20056;-82
2021/03/14 10:40:05;;;;;;;11.27;4.33;;;;;;;;;;5071697;28;20071;-82
2021/03/14 10:42:31;;;;;;;10.40;4.40;;;;;;;;;;5072111;28;20028;-81
2021/03/14 10:45:01;;;;;;;10.20;4.63;;;;;;;;;;5071662;28;20103;-81
2021/03/14 10:47:28;;;;;;;15.03;4.73;;;;;;;;;;5073061;28;20478;-82
2021/03/14 10:50:04;;;;;;;13.60;3.90;;;;;;;;;;5071377;28;20016;-81
2021/03/14 10:52:30;;;;;;;10.53;3.40;;;;;;;;;;5071578;28;20040;-82
2021/03/14 10:54:55;;;;;;;11.57;3.83;;;;;;;;;;5071005;28;20110;-82
2021/03/14 10:57:20;;;;;;;7.70;2.20;;;;;;;;;;5071846;28;20024;-82
2021/03/14 10:59:45;;;;;;;10.90;3.10;;;;;;;;;;5072976;28;20039;-82
2021/03/14 11:02:43;;;;;;;14.90;3.27;;;;;;;;;;5071393;28;20017;-82
2021/03/14 11:05:07;;;;;;;10.47;3.37;;;;;;;;;;5072694;28;20036;-82
2021/03/14 11:07:34;;;;;;;8.27;3.20;;;;;;;;;;5071403;28;20089;-82
2021/03/14 11:10:09;;;;;;;8.23;3.17;;;;;;;;;;5070687;28;20027;-82
2021/03/14 11:12:35;;;;;;;7.63;3.00;;;;;;;;;;5072298;28;20035;-82
2021/03/14 11:15:00;;;;;;;10.17;3.10;;;;;;;;;;5071109;28;20017;-82
2021/03/14 11:17:29;;;;;;;13.00;3.10;;;;;;;;;;5070327;28;20028;-82
2021/03/14 11:19:55;;;;;;;7.50;2.53;;;;;;;;;;5070846;28;20103;-81
2021/03/14 11:22:20;;;;;;;9.20;2.63;;;;;;;;;;5071235;28;20047;-81
2021/03/14 11:24:46;;;;;;;9.43;2.90;;;;;;;;;;5070813;28;20023;-81
2021/03/14 11:27:12;;;;;;;8.77;2.60;;;;;;;;;;5072502;28;20082;-81
2021/03/14 11:29:37;;;;;;;11.10;2.40;;;;;;;;;;5070577;28;20020;-81
2021/03/14 11:32:03;;;;;;;6.80;2.47;;;;;;;;;;5071164;28;20051;-82
2021/03/14 11:34:29;;;;;;;7.10;2.53;;;;;;;;;;5070789;28;20048;-82
2021/03/14 11:36:54;;;;;;;11.50;2.37;;;;;;;;;;5070662;28;20016;-82
2021/03/14 11:39:19;;;;;;;5.60;2.00;;;;;;;;;;5070933;28;20023;-81
2021/03/14 11:41:48;;;;;;;6.13;2.37;;;;;;;;;;5070776;28;20020;-81
2021/03/14 11:44:13;;;;;;;9.20;2.23;;;;;;;;;;5070644;28;20050;-81
2021/03/14 11:46:39;;;;;;;7.93;2.07;;;;;;;;;;5069979;28;20077;-81
2021/03/14 11:49:07;;;;;;;14.53;2.50;;;;;;;;;;5070849;28;20020;-81
2021/03/14 11:51:32;;;;;;;7.77;2.17;;;;;;;;;;5070502;28;20028;-82
2021/03/14 11:53:59;;;;;;;12.37;2.40;;;;;;;;;;5070959;28;20135;-82
2021/03/14 11:56:24;;;;;;;6.03;2.13;;;;;;;;;;5070575;28;20031;-82
2021/03/14 11:58:50;;;;;;;6.63;2.20;;;;;;;;;;5070429;28;20463;-81
2021/03/14 12:01:15;;;;;;;9.53;2.20;;;;;;;;;;5070119;28;20089;-81
2021/03/14 12:03:40;;;;;;;9.40;2.40;;;;;;;;;;5071733;28;20019;-82
2021/03/14 12:06:05;;;;;;;5.67;1.93;;;;;;;;;;5070757;28;20048;-81
2021/03/14 12:08:30;;;;;;;12.60;2.93;;;;;;;;;;5070400;28;20044;-81
2021/03/14 12:10:56;;;;;;;12.37;2.67;;;;;;;;;;5070085;28;20016;-81
2021/03/14 12:13:21;;;;;;;11.47;2.60;;;;;;;;;;5071457;28;20613;-82
2021/03/14 12:15:46;;;;;;;11.97;2.27;;;;;;;;;;5070274;28;20234;-82
2021/03/14 12:18:11;;;;;;;11.50;2.57;;;;;;;;;;5070631;28;20525;-81
2021/03/14 12:20:38;;;;;;;7.60;3.00;;;;;;;;;;5069192;28;20070;-82
2021/03/14 12:23:03;;;;;;;9.93;2.10;;;;;;;;;;5070551;28;20051;-82
2021/03/14 12:25:28;;;;;;;7.25;1.60;;;;;;;;;;5071571;28;20048;-82
2021/03/14 12:27:54;;;;;;;10.40;3.20;;;;;;;;;;5069169;28;20051;-82
2021/03/14 12:30:19;;;;;;;11.23;2.50;;;;;;;;;;5066626;28;20032;-81
2021/03/14 12:32:44;;;;;;;7.93;2.33;;;;;;;;;;5074715;28;20391;-82
2021/03/14 12:35:10;;;;;;;7.27;2.37;;;;;;;;;;5073905;28;20028;-82
2021/03/14 12:37:35;;;;;;;14.33;2.63;;;;;;;;;;5074174;28;20024;-82
2021/03/14 12:40:00;;;;;;;12.10;2.90;;;;;;;;;;5073791;28;20095;-82
2021/03/14 12:42:25;;;;;;;14.13;2.78;;;;;;;;;;5074285;28;20023;-82
2021/03/14 12:44:51;;;;;;;7.00;2.45;;;;;;;;;;5073445;28;20016;-82
2021/03/14 12:47:16;;;;;;;12.23;3.00;;;;;;;;;;5075221;28;20070;-82
2021/03/14 12:49:41;;;;;;;9.05;2.33;;;;;;;;;;5073482;28;20115;-82
2021/03/14 12:52:06;;;;;;;10.68;2.58;;;;;;;;;;5075742;28;20020;-82
2021/03/14 12:54:32;;;;;;;10.00;2.83;;;;;;;;;;5073158;28;20545;-82
2021/03/14 12:56:57;;;;;;;14.83;2.33;;;;;;;;;;5072691;28;20013;-82
2021/03/14 12:59:22;;;;;;;12.43;2.53;;;;;;;;;;5073541;28;20012;-82
2021/03/14 13:01:47;;;;;;;10.52;2.47;;;;;;;;;;5070938;28;20353;-82
2021/03/14 13:04:12;;;;;;;9.45;2.70;;;;;;;;;;5072450;28;20031;-82
2021/03/14 13:06:38;;;;;;;9.13;2.70;;;;;;;;;;5072623;28;20023;-82
2021/03/14 13:09:03;;;;;;;14.77;2.60;;;;;;;;;;5071903;28;20028;-84
2021/03/14 13:11:28;;;;;;;13.30;2.53;;;;;;;;;;5072404;28;20086;-85
2021/03/14 13:13:54;;;;;;;11.67;3.27;;;;;;;;;;5073506;28;20111;-84
2021/03/14 13:16:19;;;;;;;11.27;2.80;;;;;;;;;;5072634;28;20076;-84
2021/03/14 13:18:44;;;;;;;12.77;3.57;;;;;;;;;;5070010;28;20020;-84
2021/03/14 13:21:09;;;;;;;11.00;3.43;;;;;;;;;;5073219;28;20013;-83
2021/03/14 13:23:34;;;;;;;10.77;3.37;;;;;;;;;;5073067;28;20020;-83
2021/03/14 13:26:01;;;;;;;14.10;3.37;;;;;;;;;;5073505;28;20017;-83
2021/03/14 13:28:26;;;;;;;11.93;3.63;;;;;;;;;;5073070;28;20464;-83
2021/03/14 13:30:52;;;;;;;13.30;3.27;;;;;;;;;;5072440;28;20009;-83
2021/03/14 13:33:17;;;;;;;9.23;2.80;;;;;;;;;;5071569;28;20461;-83
2021/03/14 13:35:42;;;;;;;12.17;2.60;;;;;;;;;;5072709;28;20025;-85
2021/03/14 13:38:07;;;;;;;12.17;2.73;;;;;;;;;;5072716;28;20020;-83
2021/03/14 13:40:34;;;;;;;12.53;3.43;;;;;;;;;;5072122;28;20043;-84
2021/03/14 13:42:59;;;;;;;16.57;3.93;;;;;;;;;;5072126;28;20024;-83
2021/03/14 13:45:24;;;;;;;21.77;3.60;;;;;;;;;;5072350;28;20028;-83
2021/03/14 13:47:49;;;;;;;12.57;3.10;;;;;;;;;;5073020;28;20476;-83
2021/03/14 13:50:15;;;;;;;19.83;3.10;;;;;;;;;;5071994;28;20060;-83
2021/03/14 13:52:40;;;;;;;8.17;2.53;;;;;;;;;;5072516;28;20386;-83
2021/03/14 13:55:05;;;;;;;19.07;3.00;;;;;;;;;;5073832;28;20028;-83
2021/03/14 13:57:31;;;;;;;20.33;2.73;;;;;;;;;;5072353;28;20020;-83
2021/03/14 13:59:56;;;;;;;14.03;2.70;;;;;;;;;;5072439;28;20046;-82
2021/03/14 14:02:22;;;;;;;10.13;2.70;;;;;;;;;;5075163;28;20039;-83
2021/03/14 14:04:48;;;;;;;11.37;2.13;;;;;;;;;;5063206;28;20028;-83
2021/03/14 14:07:13;;;;;;;11.73;2.03;;;;;;;;;;5070608;28;20032;-83
2021/03/14 14:09:38;;;;;;;11.60;2.13;;;;;;;;;;5072314;28;20017;-83
2021/03/14 14:12:03;;;;;;;14.40;2.63;;;;;;;;;;5072105;28;20356;-84
2021/03/14 14:14:29;;;;;;;12.50;2.73;;;;;;;;;;5069818;28;20115;-84
2021/03/14 14:16:54;;;;;;;7.20;1.73;;;;;;;;;;5071220;28;20029;-85
2021/03/14 14:19:19;;;;;;;8.30;1.60;;;;;;;;;;5072192;28;20021;-84
2021/03/14 14:21:44;;;;;;;13.03;2.43;;;;;;;;;;5073823;28;20421;-83
2021/03/14 14:24:10;;;;;;;11.90;1.60;;;;;;;;;;5072225;28;20027;-84
2021/03/14 14:26:35;;;;;;;15.07;1.67;;;;;;;;;;5063470;28;20143;-84
2021/03/14 14:29:00;;;;;;;9.07;2.10;;;;;;;;;;5072403;28;20081;-84
2021/03/14 14:31:25;;;;;;;11.40;2.17;;;;;;;;;;5064678;28;20462;-84